Details From YBRK - Rockhampton
To YGLA - Gladstone
Flight Number -
Tags decoded
Created
Modified
Stats Distance 51 nm / 94 km
Max Altitude 0 ft / 0 m
Waypoints 3
Social Downloads 1
Likes 0
Share VATSIM

Download

Looking for another format? Having issues loading an existing format? Contact us
Advertisement - Login to hide

Notes

Requested: YBRK RK YGLA

Route

YBRK RK YGLA

ID Type Via Altitude (ft/m) Position (lat/lon) Dist (leg/tot) Name
O YBRK APT - 0 / 0 -23.37880 / 150.47300 - / 0 nm Rockhampton
RK VOR - 0 / 0 -23.38280 / 150.47200 0 / 0 nm ROCKHAMPTON
O YGLA APT - 0 / 0 -23.86950 / 151.22400 50 / 50 nm Gladstone

Altitude Profile

Advertisement - Login to hide

YBRK

Details ICAO YBRK (ROK)
Name Rockhampton
Region Australia
Timezone Australia/Brisbane (UTC+10.0)
Stats Elevation 34 ft / 10 m (AMSL)
Location -23.378800° 150.473000°
Runways 2
Magnetic Variation 9.191° E

METAR

YBRK 201700Z AUTO 00000KT 9999 // BKN037 BKN042 24/20 Q1013

Decode

TAF

TAF YBRK 201107Z 2012/2112 VRB03KT 9999 SCT020 FM202200 08013KT 9999 SCT035 FM211000 09006KT 9999 SCT030

Decode

Departure Runways

ID Width Length Bearing (true/mag) Surface Threshold Overrun Markings Lighting
04 102 ft / 31 m 5,395 ft / 1,644 m 52.34° / 43.15° ASPHALT 0 ft / 0 m 20 ft / 6 m APP EDGE THRESHOLD
15 148 ft / 45 m 8,649 ft / 2,636 m 157.80° / 148.61° ASPHALT 0 ft / 0 m 0 ft / 0 m APP EDGE THRESHOLD
22 102 ft / 31 m 5,395 ft / 1,644 m 232.34° / 223.14° ASPHALT 0 ft / 0 m 0 ft / 0 m APP EDGE THRESHOLD
33 148 ft / 45 m 8,649 ft / 2,636 m 337.80° / 328.61° ASPHALT 0 ft / 0 m 0 ft / 0 m APP EDGE THRESHOLD

YGLA

Details ICAO YGLA (GLT)
Name Gladstone
Region Australia
Timezone Australia/Brisbane (UTC+10.0)
Stats Elevation 64 ft / 20 m (AMSL)
Location -23.869500° 151.224000°
Runways 1
Magnetic Variation 9.514° E

METAR

YGLA 201700Z AUTO 06006KT 9999 // SCT019 24/19 Q1014

Decode

TAF

TAF YGLA 200507Z 2006/2018 04014KT 9999 FEW040 FM201000 06008KT 9999 SCT018 FM201700 06008KT 9999 FEW018 SCT030

Decode

Destination Runways

ID Width Length Bearing (true/mag) Surface Threshold Overrun Markings Lighting
10 98 ft / 30 m 5,354 ft / 1,632 m 110.20° / 100.69° ASPHALT 0 ft / 0 m 89 ft / 27 m APP EDGE THRESHOLD REIL-UNI
28 98 ft / 30 m 5,354 ft / 1,632 m 290.20° / 280.68° ASPHALT 322 ft / 98 m 194 ft / 59 m APP EDGE THRESHOLD

Popular Alternatives